sensor_id;sensor_type;location;lat;lon;timestamp;P1;durP1;ratioP1;P2;durP2;ratioP2
10450;SDS011;5273;51.290;6.918;2023-10-13T00:01:55;16.17;;;11.07;;
10450;SDS011;5273;51.290;6.918;2023-10-13T00:04:23;15.88;;;11.15;;
10450;SDS011;5273;51.290;6.918;2023-10-13T00:06:50;14.10;;;11.43;;
10450;SDS011;5273;51.290;6.918;2023-10-13T00:09:18;15.43;;;11.15;;
10450;SDS011;5273;51.290;6.918;2023-10-13T00:11:50;14.57;;;11.63;;
10450;SDS011;5273;51.290;6.918;2023-10-13T00:14:17;18.38;;;11.93;;
10450;SDS011;5273;51.290;6.918;2023-10-13T00:16:46;16.92;;;11.60;;
10450;SDS011;5273;51.290;6.918;2023-10-13T00:19:28;17.30;;;11.05;;
10450;SDS011;5273;51.290;6.918;2023-10-13T00:22:02;17.95;;;11.65;;
10450;SDS011;5273;51.290;6.918;2023-10-13T00:24:34;17.70;;;11.13;;
10450;SDS011;5273;51.290;6.918;2023-10-13T00:27:07;15.68;;;10.77;;
10450;SDS011;5273;51.290;6.918;2023-10-13T00:29:49;16.75;;;11.13;;
10450;SDS011;5273;51.290;6.918;2023-10-13T00:32:16;14.45;;;10.85;;
10450;SDS011;5273;51.290;6.918;2023-10-13T00:34:49;13.93;;;10.35;;
10450;SDS011;5273;51.290;6.918;2023-10-13T00:37:20;18.65;;;11.07;;
10450;SDS011;5273;51.290;6.918;2023-10-13T00:39:53;12.95;;;10.10;;
10450;SDS011;5273;51.290;6.918;2023-10-13T00:42:22;11.85;;;9.25;;
10450;SDS011;5273;51.290;6.918;2023-10-13T00:44:58;12.52;;;9.15;;
10450;SDS011;5273;51.290;6.918;2023-10-13T00:47:25;12.25;;;9.43;;
10450;SDS011;5273;51.290;6.918;2023-10-13T00:50:14;12.60;;;8.75;;
10450;SDS011;5273;51.290;6.918;2023-10-13T00:52:42;14.05;;;9.40;;
10450;SDS011;5273;51.290;6.918;2023-10-13T00:55:11;13.60;;;8.85;;
10450;SDS011;5273;51.290;6.918;2023-10-13T00:57:39;16.60;;;9.57;;
10450;SDS011;5273;51.290;6.918;2023-10-13T01:00:07;11.68;;;9.02;;
10450;SDS011;5273;51.290;6.918;2023-10-13T01:02:43;15.25;;;9.23;;
10450;SDS011;5273;51.290;6.918;2023-10-13T01:05:21;14.48;;;9.23;;
10450;SDS011;5273;51.290;6.918;2023-10-13T01:07:48;15.27;;;9.50;;
10450;SDS011;5273;51.290;6.918;2023-10-13T01:10:18;14.23;;;9.38;;
10450;SDS011;5273;51.290;6.918;2023-10-13T01:12:45;10.55;;;8.70;;
10450;SDS011;5273;51.290;6.918;2023-10-13T01:15:12;13.15;;;9.18;;
10450;SDS011;5273;51.290;6.918;2023-10-13T01:17:42;13.20;;;8.80;;
10450;SDS011;5273;51.290;6.918;2023-10-13T01:20:11;12.52;;;8.75;;
10450;SDS011;5273;51.290;6.918;2023-10-13T01:22:45;11.55;;;9.43;;
10450;SDS011;5273;51.290;6.918;2023-10-13T01:25:21;16.27;;;9.57;;
10450;SDS011;5273;51.290;6.918;2023-10-13T01:27:50;12.13;;;9.02;;
10450;SDS011;5273;51.290;6.918;2023-10-13T01:30:18;14.02;;;9.57;;
10450;SDS011;5273;51.290;6.918;2023-10-13T01:32:48;13.55;;;10.20;;
10450;SDS011;5273;51.290;6.918;2023-10-13T01:35:16;13.63;;;9.93;;
10450;SDS011;5273;51.290;6.918;2023-10-13T01:37:43;12.75;;;9.30;;
10450;SDS011;5273;51.290;6.918;2023-10-13T01:40:11;12.70;;;9.02;;
10450;SDS011;5273;51.290;6.918;2023-10-13T01:42:38;14.23;;;9.30;;
10450;SDS011;5273;51.290;6.918;2023-10-13T01:45:06;14.35;;;9.82;;
10450;SDS011;5273;51.290;6.918;2023-10-13T01:47:32;14.10;;;10.05;;
10450;SDS011;5273;51.290;6.918;2023-10-13T01:49:59;15.30;;;9.77;;
10450;SDS011;5273;51.290;6.918;2023-10-13T01:52:38;13.88;;;8.85;;
10450;SDS011;5273;51.290;6.918;2023-10-13T01:55:07;15.73;;;9.00;;
10450;SDS011;5273;51.290;6.918;2023-10-13T01:57:35;11.38;;;8.93;;
10450;SDS011;5273;51.290;6.918;2023-10-13T02:00:04;16.25;;;9.27;;
10450;SDS011;5273;51.290;6.918;2023-10-13T02:02:37;15.63;;;9.48;;
10450;SDS011;5273;51.290;6.918;2023-10-13T02:05:10;14.70;;;9.32;;
10450;SDS011;5273;51.290;6.918;2023-10-13T02:07:37;15.30;;;9.35;;
10450;SDS011;5273;51.290;6.918;2023-10-13T02:10:10;11.10;;;9.15;;
10450;SDS011;5273;51.290;6.918;2023-10-13T02:12:37;14.50;;;10.32;;
10450;SDS011;5273;51.290;6.918;2023-10-13T02:15:10;14.27;;;9.68;;
10450;SDS011;5273;51.290;6.918;2023-10-13T02:17:46;12.75;;;10.02;;
10450;SDS011;5273;51.290;6.918;2023-10-13T02:20:16;11.85;;;8.90;;
10450;SDS011;5273;51.290;6.918;2023-10-13T02:22:43;14.77;;;9.10;;
10450;SDS011;5273;51.290;6.918;2023-10-13T02:25:14;14.75;;;9.73;;
10450;SDS011;5273;51.290;6.918;2023-10-13T02:27:42;10.77;;;8.35;;
10450;SDS011;5273;51.290;6.918;2023-10-13T02:30:14;15.65;;;10.38;;
10450;SDS011;5273;51.290;6.918;2023-10-13T02:32:40;25.63;;;11.40;;
10450;SDS011;5273;51.290;6.918;2023-10-13T02:35:09;15.68;;;10.15;;
10450;SDS011;5273;51.290;6.918;2023-10-13T02:37:40;12.90;;;10.77;;
10450;SDS011;5273;51.290;6.918;2023-10-13T02:40:09;14.02;;;10.52;;
10450;SDS011;5273;51.290;6.918;2023-10-13T02:42:36;14.52;;;10.07;;
10450;SDS011;5273;51.290;6.918;2023-10-13T02:45:04;14.43;;;10.35;;
10450;SDS011;5273;51.290;6.918;2023-10-13T02:47:34;14.02;;;10.77;;
10450;SDS011;5273;51.290;6.918;2023-10-13T02:50:01;16.52;;;10.57;;
10450;SDS011;5273;51.290;6.918;2023-10-13T02:52:36;18.48;;;12.20;;
10450;SDS011;5273;51.290;6.918;2023-10-13T02:55:06;15.38;;;11.50;;
10450;SDS011;5273;51.290;6.918;2023-10-13T02:57:35;17.10;;;11.27;;
10450;SDS011;5273;51.290;6.918;2023-10-13T03:00:02;19.75;;;12.00;;
10450;SDS011;5273;51.290;6.918;2023-10-13T03:02:38;19.02;;;12.75;;
10450;SDS011;5273;51.290;6.918;2023-10-13T03:05:09;17.75;;;13.63;;
10450;SDS011;5273;51.290;6.918;2023-10-13T03:07:38;19.77;;;13.80;;
10450;SDS011;5273;51.290;6.918;2023-10-13T03:10:09;21.83;;;14.73;;
10450;SDS011;5273;51.290;6.918;2023-10-13T03:12:35;25.65;;;15.32;;
10450;SDS011;5273;51.290;6.918;2023-10-13T03:15:03;24.23;;;14.98;;
10450;SDS011;5273;51.290;6.918;2023-10-13T03:17:44;22.73;;;15.50;;
10450;SDS011;5273;51.290;6.918;2023-10-13T03:20:11;20.73;;;15.70;;
10450;SDS011;5273;51.290;6.918;2023-10-13T03:22:40;21.92;;;16.95;;
10450;SDS011;5273;51.290;6.918;2023-10-13T03:25:10;27.25;;;17.27;;
10450;SDS011;5273;51.290;6.918;2023-10-13T03:27:54;30.75;;;17.20;;
10450;SDS011;5273;51.290;6.918;2023-10-13T03:30:29;24.60;;;17.08;;
10450;SDS011;5273;51.290;6.918;2023-10-13T03:33:03;24.40;;;17.13;;
10450;SDS011;5273;51.290;6.918;2023-10-13T03:35:33;28.65;;;18.50;;
10450;SDS011;5273;51.290;6.918;2023-10-13T03:38:05;28.20;;;17.98;;
10450;SDS011;5273;51.290;6.918;2023-10-13T03:40:39;26.65;;;18.30;;
10450;SDS011;5273;51.290;6.918;2023-10-13T03:43:06;29.70;;;19.02;;
10450;SDS011;5273;51.290;6.918;2023-10-13T03:45:35;30.30;;;17.80;;
10450;SDS011;5273;51.290;6.918;2023-10-13T03:48:06;30.20;;;18.35;;
10450;SDS011;5273;51.290;6.918;2023-10-13T03:50:53;30.40;;;18.98;;
10450;SDS011;5273;51.290;6.918;2023-10-13T03:53:28;32.75;;;18.45;;
10450;SDS011;5273;51.290;6.918;2023-10-13T03:55:58;26.08;;;17.92;;
10450;SDS011;5273;51.290;6.918;2023-10-13T03:58:34;28.73;;;17.63;;
10450;SDS011;5273;51.290;6.918;2023-10-13T04:01:01;32.78;;;18.10;;
10450;SDS011;5273;51.290;6.918;2023-10-13T04:03:31;29.23;;;17.67;;
10450;SDS011;5273;51.290;6.918;2023-10-13T04:06:08;27.50;;;16.67;;
10450;SDS011;5273;51.290;6.918;2023-10-13T04:08:41;28.95;;;17.60;;
10450;SDS011;5273;51.290;6.918;2023-10-13T04:11:13;28.52;;;18.17;;
10450;SDS011;5273;51.290;6.918;2023-10-13T04:13:58;24.58;;;16.67;;
10450;SDS011;5273;51.290;6.918;2023-10-13T04:16:42;32.25;;;17.42;;
10450;SDS011;5273;51.290;6.918;2023-10-13T04:19:18;29.48;;;17.55;;
10450;SDS011;5273;51.290;6.918;2023-10-13T04:21:54;31.30;;;17.50;;
10450;SDS011;5273;51.290;6.918;2023-10-13T04:24:23;28.58;;;17.27;;
10450;SDS011;5273;51.290;6.918;2023-10-13T04:27:20;28.55;;;16.65;;
10450;SDS011;5273;51.290;6.918;2023-10-13T04:30:09;28.83;;;17.30;;
10450;SDS011;5273;51.290;6.918;2023-10-13T04:32:44;26.02;;;15.95;;
10450;SDS011;5273;51.290;6.918;2023-10-13T04:35:19;27.10;;;17.17;;
10450;SDS011;5273;51.290;6.918;2023-10-13T04:37:49;28.02;;;16.73;;
10450;SDS011;5273;51.290;6.918;2023-10-13T04:40:17;24.88;;;15.75;;
10450;SDS011;5273;51.290;6.918;2023-10-13T04:42:49;29.88;;;17.35;;
10450;SDS011;5273;51.290;6.918;2023-10-13T04:45:18;27.67;;;16.40;;
10450;SDS011;5273;51.290;6.918;2023-10-13T04:48:11;25.60;;;17.15;;
10450;SDS011;5273;51.290;6.918;2023-10-13T04:50:58;25.52;;;15.85;;
10450;SDS011;5273;51.290;6.918;2023-10-13T04:53:39;25.20;;;17.52;;
10450;SDS011;5273;51.290;6.918;2023-10-13T04:56:36;32.50;;;18.25;;
10450;SDS011;5273;51.290;6.918;2023-10-13T04:59:20;29.70;;;17.63;;
10450;SDS011;5273;51.290;6.918;2023-10-13T05:02:30;30.48;;;17.98;;
10450;SDS011;5273;51.290;6.918;2023-10-13T05:05:15;32.28;;;17.80;;
10450;SDS011;5273;51.290;6.918;2023-10-13T05:08:08;32.30;;;18.10;;
10450;SDS011;5273;51.290;6.918;2023-10-13T05:10:57;31.77;;;17.73;;
10450;SDS011;5273;51.290;6.918;2023-10-13T05:13:46;31.35;;;18.23;;
10450;SDS011;5273;51.290;6.918;2023-10-13T05:16:30;30.88;;;18.05;;
10450;SDS011;5273;51.290;6.918;2023-10-13T05:19:15;33.00;;;19.00;;
10450;SDS011;5273;51.290;6.918;2023-10-13T05:21:59;27.65;;;18.33;;
10450;SDS011;5273;51.290;6.918;2023-10-13T05:24:44;38.80;;;19.38;;
10450;SDS011;5273;51.290;6.918;2023-10-13T05:27:28;29.95;;;19.05;;
10450;SDS011;5273;51.290;6.918;2023-10-13T05:30:12;30.65;;;18.63;;
10450;SDS011;5273;51.290;6.918;2023-10-13T05:32:56;31.77;;;18.42;;
10450;SDS011;5273;51.290;6.918;2023-10-13T05:35:42;33.42;;;20.45;;
10450;SDS011;5273;51.290;6.918;2023-10-13T05:38:26;33.08;;;19.27;;
10450;SDS011;5273;51.290;6.918;2023-10-13T05:41:10;32.20;;;20.38;;
10450;SDS011;5273;51.290;6.918;2023-10-13T05:43:54;34.38;;;20.00;;
10450;SDS011;5273;51.290;6.918;2023-10-13T05:46:38;32.35;;;19.67;;
10450;SDS011;5273;51.290;6.918;2023-10-13T05:49:22;33.05;;;19.52;;
10450;SDS011;5273;51.290;6.918;2023-10-13T05:52:04;36.63;;;20.30;;
10450;SDS011;5273;51.290;6.918;2023-10-13T05:54:43;33.50;;;19.45;;
10450;SDS011;5273;51.290;6.918;2023-10-13T05:57:28;35.25;;;20.35;;
10450;SDS011;5273;51.290;6.918;2023-10-13T06:00:13;41.50;;;19.50;;
10450;SDS011;5273;51.290;6.918;2023-10-13T06:02:58;36.05;;;20.98;;
10450;SDS011;5273;51.290;6.918;2023-10-13T06:05:42;33.70;;;19.15;;
10450;SDS011;5273;51.290;6.918;2023-10-13T06:08:27;34.58;;;18.15;;
10450;SDS011;5273;51.290;6.918;2023-10-13T06:11:11;36.35;;;18.98;;
10450;SDS011;5273;51.290;6.918;2023-10-13T06:13:56;31.15;;;18.83;;
10450;SDS011;5273;51.290;6.918;2023-10-13T06:16:40;30.60;;;18.17;;
10450;SDS011;5273;51.290;6.918;2023-10-13T06:19:24;36.53;;;18.55;;
10450;SDS011;5273;51.290;6.918;2023-10-13T06:22:08;39.20;;;18.92;;
10450;SDS011;5273;51.290;6.918;2023-10-13T06:24:53;33.33;;;17.83;;
10450;SDS011;5273;51.290;6.918;2023-10-13T06:27:37;31.15;;;18.63;;
10450;SDS011;5273;51.290;6.918;2023-10-13T06:30:22;34.55;;;20.40;;
10450;SDS011;5273;51.290;6.918;2023-10-13T06:32:48;38.38;;;21.15;;
10450;SDS011;5273;51.290;6.918;2023-10-13T06:35:16;37.75;;;20.80;;
10450;SDS011;5273;51.290;6.918;2023-10-13T06:37:48;37.53;;;19.95;;
10450;SDS011;5273;51.290;6.918;2023-10-13T06:40:16;32.60;;;19.40;;
10450;SDS011;5273;51.290;6.918;2023-10-13T06:42:58;36.80;;;20.40;;
10450;SDS011;5273;51.290;6.918;2023-10-13T06:45:37;34.47;;;18.90;;
10450;SDS011;5273;51.290;6.918;2023-10-13T06:48:04;31.42;;;19.25;;
10450;SDS011;5273;51.290;6.918;2023-10-13T06:50:35;31.23;;;18.45;;
10450;SDS011;5273;51.290;6.918;2023-10-13T06:53:06;36.30;;;19.10;;
10450;SDS011;5273;51.290;6.918;2023-10-13T06:55:38;30.65;;;17.05;;
10450;SDS011;5273;51.290;6.918;2023-10-13T06:58:05;33.28;;;16.83;;
10450;SDS011;5273;51.290;6.918;2023-10-13T07:00:37;28.77;;;16.63;;
10450;SDS011;5273;51.290;6.918;2023-10-13T07:03:17;27.70;;;16.67;;
10450;SDS011;5273;51.290;6.918;2023-10-13T07:05:44;28.20;;;15.98;;
10450;SDS011;5273;51.290;6.918;2023-10-13T07:08:13;28.95;;;17.10;;
10450;SDS011;5273;51.290;6.918;2023-10-13T07:10:48;24.38;;;15.38;;
10450;SDS011;5273;51.290;6.918;2023-10-13T07:13:27;33.42;;;17.25;;
10450;SDS011;5273;51.290;6.918;2023-10-13T07:15:54;23.17;;;16.50;;
10450;SDS011;5273;51.290;6.918;2023-10-13T07:18:26;24.88;;;14.55;;
10450;SDS011;5273;51.290;6.918;2023-10-13T07:21:00;22.27;;;15.88;;
10450;SDS011;5273;51.290;6.918;2023-10-13T07:23:34;26.10;;;13.90;;
10450;SDS011;5273;51.290;6.918;2023-10-13T07:26:04;25.50;;;15.40;;
10450;SDS011;5273;51.290;6.918;2023-10-13T07:28:33;25.05;;;14.80;;
10450;SDS011;5273;51.290;6.918;2023-10-13T07:31:01;24.52;;;14.30;;
10450;SDS011;5273;51.290;6.918;2023-10-13T07:33:41;21.27;;;13.30;;
10450;SDS011;5273;51.290;6.918;2023-10-13T07:36:08;22.30;;;14.35;;
10450;SDS011;5273;51.290;6.918;2023-10-13T07:38:42;23.58;;;12.75;;
10450;SDS011;5273;51.290;6.918;2023-10-13T07:41:15;23.67;;;12.75;;
10450;SDS011;5273;51.290;6.918;2023-10-13T07:43:42;21.10;;;12.45;;
10450;SDS011;5273;51.290;6.918;2023-10-13T07:46:10;20.50;;;12.45;;
10450;SDS011;5273;51.290;6.918;2023-10-13T07:48:37;19.38;;;11.98;;
10450;SDS011;5273;51.290;6.918;2023-10-13T07:51:06;20.02;;;10.95;;
10450;SDS011;5273;51.290;6.918;2023-10-13T07:53:36;22.75;;;11.43;;
10450;SDS011;5273;51.290;6.918;2023-10-13T07:56:05;20.17;;;10.55;;
10450;SDS011;5273;51.290;6.918;2023-10-13T07:58:35;18.70;;;9.32;;
10450;SDS011;5273;51.290;6.918;2023-10-13T08:01:12;17.88;;;10.10;;
10450;SDS011;5273;51.290;6.918;2023-10-13T08:03:43;15.10;;;8.70;;
10450;SDS011;5273;51.290;6.918;2023-10-13T08:06:11;14.23;;;8.75;;
10450;SDS011;5273;51.290;6.918;2023-10-13T08:08:45;15.43;;;8.13;;
10450;SDS011;5273;51.290;6.918;2023-10-13T08:11:15;13.23;;;7.15;;
10450;SDS011;5273;51.290;6.918;2023-10-13T08:13:57;14.10;;;6.85;;
10450;SDS011;5273;51.290;6.918;2023-10-13T08:16:25;13.98;;;6.65;;
10450;SDS011;5273;51.290;6.918;2023-10-13T08:19:10;15.95;;;7.30;;
10450;SDS011;5273;51.290;6.918;2023-10-13T08:21:40;12.38;;;7.15;;
10450;SDS011;5273;51.290;6.918;2023-10-13T08:24:14;14.65;;;7.68;;
10450;SDS011;5273;51.290;6.918;2023-10-13T08:26:49;11.95;;;6.15;;
10450;SDS011;5273;51.290;6.918;2023-10-13T08:29:35;14.57;;;6.18;;
10450;SDS011;5273;51.290;6.918;2023-10-13T08:32:34;11.65;;;5.20;;
10450;SDS011;5273;51.290;6.918;2023-10-13T08:35:19;11.30;;;5.35;;
10450;SDS011;5273;51.290;6.918;2023-10-13T08:37:58;11.20;;;5.05;;
10450;SDS011;5273;51.290;6.918;2023-10-13T08:40:30;9.55;;;5.82;;
10450;SDS011;5273;51.290;6.918;2023-10-13T08:43:14;16.02;;;5.40;;
10450;SDS011;5273;51.290;6.918;2023-10-13T08:45:43;10.77;;;4.95;;
10450;SDS011;5273;51.290;6.918;2023-10-13T08:48:19;9.93;;;4.55;;
10450;SDS011;5273;51.290;6.918;2023-10-13T08:50:56;9.35;;;4.32;;
10450;SDS011;5273;51.290;6.918;2023-10-13T08:53:29;12.35;;;5.07;;
10450;SDS011;5273;51.290;6.918;2023-10-13T08:55:58;9.80;;;4.40;;
10450;SDS011;5273;51.290;6.918;2023-10-13T08:58:34;15.85;;;5.70;;
10450;SDS011;5273;51.290;6.918;2023-10-13T09:01:21;12.32;;;5.07;;
10450;SDS011;5273;51.290;6.918;2023-10-13T09:04:03;12.38;;;5.15;;
10450;SDS011;5273;51.290;6.918;2023-10-13T09:06:49;10.27;;;4.38;;
10450;SDS011;5273;51.290;6.918;2023-10-13T09:09:46;10.13;;;5.15;;
10450;SDS011;5273;51.290;6.918;2023-10-13T09:12:36;14.80;;;4.72;;
10450;SDS011;5273;51.290;6.918;2023-10-13T09:15:05;8.13;;;4.28;;
10450;SDS011;5273;51.290;6.918;2023-10-13T09:17:50;11.02;;;4.47;;
10450;SDS011;5273;51.290;6.918;2023-10-13T09:20:38;10.50;;;4.13;;
10450;SDS011;5273;51.290;6.918;2023-10-13T09:23:10;9.85;;;4.53;;
10450;SDS011;5273;51.290;6.918;2023-10-13T09:25:38;7.70;;;4.55;;
10450;SDS011;5273;51.290;6.918;2023-10-13T09:28:18;10.38;;;4.57;;
10450;SDS011;5273;51.290;6.918;2023-10-13T09:30:48;8.10;;;4.10;;
10450;SDS011;5273;51.290;6.918;2023-10-13T09:33:20;10.52;;;4.43;;
10450;SDS011;5273;51.290;6.918;2023-10-13T09:35:54;10.52;;;4.63;;
10450;SDS011;5273;51.290;6.918;2023-10-13T09:38:24;9.75;;;4.15;;
10450;SDS011;5273;51.290;6.918;2023-10-13T09:40:50;5.50;;;3.85;;
10450;SDS011;5273;51.290;6.918;2023-10-13T09:43:22;11.00;;;4.45;;
10450;SDS011;5273;51.290;6.918;2023-10-13T09:45:48;10.13;;;4.55;;
10450;SDS011;5273;51.290;6.918;2023-10-13T09:48:33;11.02;;;3.97;;
10450;SDS011;5273;51.290;6.918;2023-10-13T09:51:01;7.50;;;3.90;;
10450;SDS011;5273;51.290;6.918;2023-10-13T09:53:35;9.13;;;3.97;;
10450;SDS011;5273;51.290;6.918;2023-10-13T09:56:06;10.00;;;4.80;;
10450;SDS011;5273;51.290;6.918;2023-10-13T09:58:42;10.75;;;4.90;;
10450;SDS011;5273;51.290;6.918;2023-10-13T10:01:17;11.73;;;4.53;;
10450;SDS011;5273;51.290;6.918;2023-10-13T10:04:08;11.35;;;4.75;;
10450;SDS011;5273;51.290;6.918;2023-10-13T10:06:36;8.90;;;4.68;;
10450;SDS011;5273;51.290;6.918;2023-10-13T10:09:10;14.32;;;5.00;;
10450;SDS011;5273;51.290;6.918;2023-10-13T10:14:41;9.43;;;5.05;;
10450;SDS011;5273;51.290;6.918;2023-10-13T10:17:22;9.60;;;4.43;;
10450;SDS011;5273;51.290;6.918;2023-10-13T10:19:56;8.48;;;5.07;;
10450;SDS011;5273;51.290;6.918;2023-10-13T10:22:26;9.80;;;4.90;;
10450;SDS011;5273;51.290;6.918;2023-10-13T10:24:56;9.40;;;4.50;;
10450;SDS011;5273;51.290;6.918;2023-10-13T10:27:24;6.70;;;4.50;;
10450;SDS011;5273;51.290;6.918;2023-10-13T10:29:54;11.23;;;5.20;;
10450;SDS011;5273;51.290;6.918;2023-10-13T10:32:31;10.95;;;4.97;;
10450;SDS011;5273;51.290;6.918;2023-10-13T10:35:03;8.05;;;4.75;;
10450;SDS011;5273;51.290;6.918;2023-10-13T10:37:34;10.23;;;5.13;;
10450;SDS011;5273;51.290;6.918;2023-10-13T10:40:06;12.23;;;5.70;;
10450;SDS011;5273;51.290;6.918;2023-10-13T10:42:33;8.90;;;5.40;;
10450;SDS011;5273;51.290;6.918;2023-10-13T10:45:08;14.35;;;6.03;;
10450;SDS011;5273;51.290;6.918;2023-10-13T10:47:37;10.57;;;5.80;;
10450;SDS011;5273;51.290;6.918;2023-10-13T10:50:05;11.57;;;5.82;;
10450;SDS011;5273;51.290;6.918;2023-10-13T10:52:44;10.25;;;4.53;;
10450;SDS011;5273;51.290;6.918;2023-10-13T10:55:11;10.18;;;5.20;;
10450;SDS011;5273;51.290;6.918;2023-10-13T10:57:44;9.20;;;5.22;;
10450;SDS011;5273;51.290;6.918;2023-10-13T11:00:22;7.80;;;5.63;;
10450;SDS011;5273;51.290;6.918;2023-10-13T11:03:07;10.27;;;5.82;;
10450;SDS011;5273;51.290;6.918;2023-10-13T11:05:43;10.02;;;5.65;;
10450;SDS011;5273;51.290;6.918;2023-10-13T11:08:20;16.83;;;5.88;;
10450;SDS011;5273;51.290;6.918;2023-10-13T11:10:52;14.48;;;6.15;;
10450;SDS011;5273;51.290;6.918;2023-10-13T11:13:19;11.35;;;5.55;;
10450;SDS011;5273;51.290;6.918;2023-10-13T11:15:48;10.63;;;5.60;;
10450;SDS011;5273;51.290;6.918;2023-10-13T11:18:16;9.48;;;5.30;;
10450;SDS011;5273;51.290;6.918;2023-10-13T11:20:47;9.48;;;5.32;;
10450;SDS011;5273;51.290;6.918;2023-10-13T11:23:19;11.27;;;5.55;;
10450;SDS011;5273;51.290;6.918;2023-10-13T11:25:56;15.55;;;5.10;;
10450;SDS011;5273;51.290;6.918;2023-10-13T11:28:24;9.82;;;5.40;;
10450;SDS011;5273;51.290;6.918;2023-10-13T11:30:53;15.15;;;5.38;;
10450;SDS011;5273;51.290;6.918;2023-10-13T11:33:23;9.93;;;5.68;;
10450;SDS011;5273;51.290;6.918;2023-10-13T11:35:54;11.98;;;5.25;;
10450;SDS011;5273;51.290;6.918;2023-10-13T11:38:22;12.63;;;5.75;;
10450;SDS011;5273;51.290;6.918;2023-10-13T11:40:53;11.52;;;5.25;;
10450;SDS011;5273;51.290;6.918;2023-10-13T11:43:33;11.80;;;5.45;;
10450;SDS011;5273;51.290;6.918;2023-10-13T11:46:17;17.33;;;5.20;;
10450;SDS011;5273;51.290;6.918;2023-10-13T11:49:05;11.73;;;4.97;;
10450;SDS011;5273;51.290;6.918;2023-10-13T11:51:44;12.23;;;5.55;;
10450;SDS011;5273;51.290;6.918;2023-10-13T11:54:11;12.32;;;5.13;;
10450;SDS011;5273;51.290;6.918;2023-10-13T11:56:39;15.43;;;5.07;;
10450;SDS011;5273;51.290;6.918;2023-10-13T11:59:06;9.13;;;5.20;;
10450;SDS011;5273;51.290;6.918;2023-10-13T12:01:41;12.25;;;5.68;;
10450;SDS011;5273;51.290;6.918;2023-10-13T12:04:26;14.05;;;5.38;;
10450;SDS011;5273;51.290;6.918;2023-10-13T12:07:06;13.93;;;5.03;;
10450;SDS011;5273;51.290;6.918;2023-10-13T12:09:47;13.45;;;5.55;;
10450;SDS011;5273;51.290;6.918;2023-10-13T12:12:28;11.95;;;5.50;;
10450;SDS011;5273;51.290;6.918;2023-10-13T12:14:56;10.20;;;4.60;;
10450;SDS011;5273;51.290;6.918;2023-10-13T12:17:34;11.38;;;4.70;;
10450;SDS011;5273;51.290;6.918;2023-10-13T12:20:01;13.85;;;5.18;;
10450;SDS011;5273;51.290;6.918;2023-10-13T12:22:31;10.48;;;4.63;;
10450;SDS011;5273;51.290;6.918;2023-10-13T12:25:04;18.23;;;4.90;;
10450;SDS011;5273;51.290;6.918;2023-10-13T12:27:44;18.33;;;5.70;;
10450;SDS011;5273;51.290;6.918;2023-10-13T12:30:13;13.35;;;5.05;;
10450;SDS011;5273;51.290;6.918;2023-10-13T12:32:47;19.60;;;5.57;;
10450;SDS011;5273;51.290;6.918;2023-10-13T12:35:31;22.25;;;5.05;;
10450;SDS011;5273;51.290;6.918;2023-10-13T12:38:01;15.73;;;5.15;;
10450;SDS011;5273;51.290;6.918;2023-10-13T12:40:41;12.75;;;4.85;;
10450;SDS011;5273;51.290;6.918;2023-10-13T12:43:25;16.98;;;5.20;;
10450;SDS011;5273;51.290;6.918;2023-10-13T12:46:10;14.27;;;5.30;;
10450;SDS011;5273;51.290;6.918;2023-10-13T12:48:53;10.63;;;4.80;;
10450;SDS011;5273;51.290;6.918;2023-10-13T12:51:29;15.57;;;5.35;;
10450;SDS011;5273;51.290;6.918;2023-10-13T12:54:18;16.42;;;5.03;;
10450;SDS011;5273;51.290;6.918;2023-10-13T12:56:52;15.70;;;5.10;;
10450;SDS011;5273;51.290;6.918;2023-10-13T12:59:22;16.38;;;5.20;;
10450;SDS011;5273;51.290;6.918;2023-10-13T13:01:51;15.23;;;4.88;;
10450;SDS011;5273;51.290;6.918;2023-10-13T13:04:19;12.50;;;5.63;;
10450;SDS011;5273;51.290;6.918;2023-10-13T13:06:46;13.90;;;4.82;;
10450;SDS011;5273;51.290;6.918;2023-10-13T13:09:13;15.27;;;5.25;;
10450;SDS011;5273;51.290;6.918;2023-10-13T13:11:41;12.60;;;5.05;;
10450;SDS011;5273;51.290;6.918;2023-10-13T13:14:09;13.15;;;5.30;;
10450;SDS011;5273;51.290;6.918;2023-10-13T13:16:35;14.35;;;4.90;;
10450;SDS011;5273;51.290;6.918;2023-10-13T13:19:04;15.32;;;4.82;;
10450;SDS011;5273;51.290;6.918;2023-10-13T13:21:36;14.35;;;5.47;;
10450;SDS011;5273;51.290;6.918;2023-10-13T13:24:03;11.75;;;4.55;;
10450;SDS011;5273;51.290;6.918;2023-10-13T13:26:35;12.43;;;5.68;;
10450;SDS011;5273;51.290;6.918;2023-10-13T13:29:06;13.55;;;5.07;;
10450;SDS011;5273;51.290;6.918;2023-10-13T13:31:35;15.15;;;5.38;;
10450;SDS011;5273;51.290;6.918;2023-10-13T13:34:07;15.13;;;5.25;;
10450;SDS011;5273;51.290;6.918;2023-10-13T13:36:35;13.98;;;4.82;;
10450;SDS011;5273;51.290;6.918;2023-10-13T13:39:02;15.27;;;5.22;;
10450;SDS011;5273;51.290;6.918;2023-10-13T13:41:31;10.07;;;5.10;;
10450;SDS011;5273;51.290;6.918;2023-10-13T13:43:58;9.38;;;5.10;;
10450;SDS011;5273;51.290;6.918;2023-10-13T13:46:39;12.70;;;4.95;;
10450;SDS011;5273;51.290;6.918;2023-10-13T13:49:07;11.90;;;4.88;;
10450;SDS011;5273;51.290;6.918;2023-10-13T13:51:42;10.30;;;4.68;;
10450;SDS011;5273;51.290;6.918;2023-10-13T13:54:16;14.93;;;5.07;;
10450;SDS011;5273;51.290;6.918;2023-10-13T13:56:44;12.07;;;5.03;;
10450;SDS011;5273;51.290;6.918;2023-10-13T13:59:11;14.73;;;4.90;;
10450;SDS011;5273;51.290;6.918;2023-10-13T14:01:42;14.38;;;4.80;;
10450;SDS011;5273;51.290;6.918;2023-10-13T14:04:10;13.55;;;4.75;;
10450;SDS011;5273;51.290;6.918;2023-10-13T14:06:39;13.98;;;4.93;;
10450;SDS011;5273;51.290;6.918;2023-10-13T14:09:06;14.20;;;4.78;;
10450;SDS011;5273;51.290;6.918;2023-10-13T14:11:40;13.95;;;4.88;;
10450;SDS011;5273;51.290;6.918;2023-10-13T14:14:30;14.27;;;4.60;;
10450;SDS011;5273;51.290;6.918;2023-10-13T14:17:00;9.85;;;4.93;;
10450;SDS011;5273;51.290;6.918;2023-10-13T14:19:33;10.40;;;5.00;;
10450;SDS011;5273;51.290;6.918;2023-10-13T14:22:05;14.65;;;5.32;;
10450;SDS011;5273;51.290;6.918;2023-10-13T14:24:32;15.40;;;5.10;;
10450;SDS011;5273;51.290;6.918;2023-10-13T14:27:08;14.50;;;5.00;;
10450;SDS011;5273;51.290;6.918;2023-10-13T14:29:37;11.52;;;4.85;;
10450;SDS011;5273;51.290;6.918;2023-10-13T14:32:08;12.75;;;5.38;;
10450;SDS011;5273;51.290;6.918;2023-10-13T14:34:38;15.60;;;5.10;;
10450;SDS011;5273;51.290;6.918;2023-10-13T14:37:05;14.20;;;4.55;;
10450;SDS011;5273;51.290;6.918;2023-10-13T14:39:32;13.85;;;5.20;;
10450;SDS011;5273;51.290;6.918;2023-10-13T14:42:01;10.05;;;4.97;;
10450;SDS011;5273;51.290;6.918;2023-10-13T14:44:30;12.77;;;5.32;;
10450;SDS011;5273;51.290;6.918;2023-10-13T14:46:57;17.42;;;6.05;;
10450;SDS011;5273;51.290;6.918;2023-10-13T14:49:26;9.88;;;4.88;;
10450;SDS011;5273;51.290;6.918;2023-10-13T14:51:53;15.10;;;4.85;;
10450;SDS011;5273;51.290;6.918;2023-10-13T14:54:21;10.02;;;4.60;;
10450;SDS011;5273;51.290;6.918;2023-10-13T14:56:57;13.27;;;5.15;;
10450;SDS011;5273;51.290;6.918;2023-10-13T14:59:25;12.85;;;5.03;;
10450;SDS011;5273;51.290;6.918;2023-10-13T15:01:52;16.42;;;4.88;;
10450;SDS011;5273;51.290;6.918;2023-10-13T15:04:19;13.38;;;4.70;;
10450;SDS011;5273;51.290;6.918;2023-10-13T15:06:51;13.25;;;4.95;;
10450;SDS011;5273;51.290;6.918;2023-10-13T15:09:18;10.73;;;4.22;;
10450;SDS011;5273;51.290;6.918;2023-10-13T15:11:48;19.15;;;4.45;;
10450;SDS011;5273;51.290;6.918;2023-10-13T15:14:17;17.08;;;4.82;;
10450;SDS011;5273;51.290;6.918;2023-10-13T15:16:45;11.18;;;4.93;;
10450;SDS011;5273;51.290;6.918;2023-10-13T15:19:13;12.70;;;4.75;;
10450;SDS011;5273;51.290;6.918;2023-10-13T15:21:41;15.27;;;5.28;;
10450;SDS011;5273;51.290;6.918;2023-10-13T15:24:15;9.35;;;4.57;;
10450;SDS011;5273;51.290;6.918;2023-10-13T15:26:42;12.35;;;4.68;;